createdAt,value
2023-03-29T00:00:06.713Z,1772.9080
2023-03-29T00:00:17.782Z,1765.8730
2023-03-29T00:00:28.816Z,1775.2660
2023-03-29T00:00:39.890Z,1762.3760
2023-03-29T00:00:50.938Z,1776.4470
2023-03-29T00:01:02.199Z,1772.9080
2023-03-29T00:01:35.000Z,1757.7350
2023-03-29T00:01:35.124Z,1787.1490
2023-03-29T00:01:47.441Z,1762.3760
2023-03-29T00:01:58.602Z,1755.4240
2023-03-29T00:02:09.699Z,1780.0000
2023-03-29T00:02:20.762Z,1749.6720
2023-03-29T00:02:31.886Z,1757.7350
2023-03-29T00:02:43.104Z,1785.9530
2023-03-29T00:02:54.352Z,1781.1870
2023-03-29T00:03:05.679Z,1765.8730
2023-03-29T00:03:17.186Z,1765.8730
2023-03-29T00:03:28.460Z,1756.5790
2023-03-29T00:03:39.692Z,1764.7061
2023-03-29T00:03:50.884Z,1763.5400
2023-03-29T00:04:02.838Z,1765.8730
2023-03-29T00:04:14.371Z,1764.7061
2023-03-29T00:04:25.434Z,1765.8730
2023-03-29T00:04:36.504Z,1762.3760
2023-03-29T00:04:47.592Z,1768.2120
2023-03-29T00:04:58.606Z,1782.3760
2023-03-29T00:05:09.663Z,1762.3760
2023-03-29T00:05:20.725Z,1762.3760
2023-03-29T00:05:31.785Z,1763.5400
2023-03-29T00:05:42.835Z,1757.7350
2023-03-29T00:05:53.897Z,1750.8199
2023-03-29T00:06:04.946Z,1758.8929
2023-03-29T00:06:16.014Z,1760.0530
2023-03-29T00:06:27.096Z,1751.9680
2023-03-29T00:06:38.135Z,1756.5790
2023-03-29T00:06:49.218Z,1760.0530
2023-03-29T00:07:00.267Z,1758.8929
2023-03-29T00:07:11.324Z,1756.5790
2023-03-29T00:07:22.370Z,1776.4470
2023-03-29T00:07:33.488Z,1754.2710
2023-03-29T00:07:44.520Z,1757.7350
2023-03-29T00:07:55.566Z,1754.2710
2023-03-29T00:08:06.619Z,1777.6300
2023-03-29T00:08:17.667Z,1756.5790
2023-03-29T00:08:28.733Z,1761.2140
2023-03-29T00:08:39.776Z,1748.5270
2023-03-29T00:08:50.835Z,1754.2710
2023-03-29T00:09:02.015Z,1749.6720
2023-03-29T00:09:13.059Z,1760.0530
2023-03-29T00:09:24.123Z,1746.2390
2023-03-29T00:09:35.179Z,1741.6830
2023-03-29T00:09:46.232Z,1756.5790
2023-03-29T00:09:57.295Z,1751.9680
2023-03-29T00:10:08.345Z,1753.1190
2023-03-29T00:10:19.417Z,1772.9080
2023-03-29T00:10:30.468Z,1751.9680
2023-03-29T00:10:41.529Z,1750.8199
2023-03-29T00:10:52.565Z,1751.9680
2023-03-29T00:11:04.168Z,1754.2710
2023-03-29T00:11:15.765Z,1748.5270
2023-03-29T00:11:26.817Z,1749.6720
2023-03-29T00:11:37.887Z,1742.8199
2023-03-29T00:11:48.955Z,1747.3820
2023-03-29T00:12:00.012Z,1768.2120
2023-03-29T00:12:11.085Z,1742.8199
2023-03-29T00:12:22.145Z,1747.3820
2023-03-29T00:12:33.176Z,1736.0210
2023-03-29T00:12:44.231Z,1747.3820
2023-03-29T00:12:55.265Z,1764.7061
2023-03-29T00:13:06.297Z,1758.8929
2023-03-29T00:13:17.340Z,1747.3820
2023-03-29T00:13:28.404Z,1772.9080
2023-03-29T00:13:39.470Z,1751.9680
2023-03-29T00:13:50.526Z,1745.0980
2023-03-29T00:14:01.588Z,1750.8199
2023-03-29T00:14:12.666Z,1751.9680
2023-03-29T00:14:23.712Z,1751.9680
2023-03-29T00:14:34.771Z,1761.2140
2023-03-29T00:14:45.853Z,1770.5570
2023-03-29T00:14:56.910Z,1754.2710
2023-03-29T00:15:07.926Z,1762.3760
2023-03-29T00:15:18.980Z,1748.5270
2023-03-29T00:15:30.047Z,1751.9680
2023-03-29T00:15:41.094Z,1749.6720
2023-03-29T00:15:52.157Z,1758.8929
2023-03-29T00:16:10.181Z,1751.9680
2023-03-29T00:16:28.229Z,1749.6720
2023-03-29T00:16:39.337Z,1760.0530
2023-03-29T00:16:57.410Z,1729.2750
2023-03-29T00:17:08.549Z,1733.7660
2023-03-29T00:17:19.582Z,1734.8929
2023-03-29T00:17:30.648Z,1729.2750
2023-03-29T00:17:41.704Z,1741.6830
2023-03-29T00:17:52.765Z,1738.2810
2023-03-29T00:18:03.869Z,1748.5270
2023-03-29T00:18:14.898Z,1745.0980
2023-03-29T00:18:25.971Z,1738.2810
2023-03-29T00:18:37.026Z,1743.9580
2023-03-29T00:18:48.095Z,1740.5480
2023-03-29T00:18:59.158Z,1741.6830
2023-03-29T00:19:10.197Z,1743.9580
2023-03-29T00:19:21.264Z,1747.3820
2023-03-29T00:19:32.327Z,1749.6720
2023-03-29T00:19:43.410Z,1748.5270
2023-03-29T00:19:54.483Z,1758.8929
2023-03-29T00:20:05.534Z,1749.6720
2023-03-29T00:20:16.611Z,1753.1190
2023-03-29T00:20:27.621Z,1756.5790
2023-03-29T00:20:38.683Z,1754.2710
2023-03-29T00:20:49.747Z,1771.7321
2023-03-29T00:21:01.086Z,1751.9680
2023-03-29T00:21:12.452Z,1751.9680
2023-03-29T00:21:23.509Z,1751.9680
2023-03-29T00:21:34.566Z,1751.9680
2023-03-29T00:21:45.647Z,1774.0861
2023-03-29T00:21:56.738Z,1751.9680
2023-03-29T00:22:07.778Z,1756.5790
2023-03-29T00:22:18.851Z,1772.9080
2023-03-29T00:22:29.875Z,1754.2710
2023-03-29T00:22:40.940Z,1754.2710
2023-03-29T00:22:52.009Z,1758.8929
2023-03-29T00:23:03.049Z,1761.2140
2023-03-29T00:23:14.120Z,1749.6720
2023-03-29T00:23:25.181Z,1757.7350
2023-03-29T00:23:36.237Z,1754.2710
2023-03-29T00:23:47.298Z,1743.9580
2023-03-29T00:23:58.365Z,1749.6720
2023-03-29T00:24:09.388Z,1754.2710
2023-03-29T00:24:20.457Z,1754.2710
2023-03-29T00:24:31.507Z,1750.8199
2023-03-29T00:24:42.572Z,1762.3760
2023-03-29T00:24:53.647Z,1757.7350
2023-03-29T00:25:04.703Z,1747.3820
2023-03-29T00:25:15.781Z,1764.7061
2023-03-29T00:25:26.825Z,1762.3760
2023-03-29T00:25:37.891Z,1755.4240
2023-03-29T00:25:48.941Z,1750.8199
2023-03-29T00:26:00.030Z,1748.5270
2023-03-29T00:26:11.059Z,1760.0530
2023-03-29T00:26:22.138Z,1748.5270
2023-03-29T00:26:33.136Z,1754.2710
2023-03-29T00:26:44.215Z,1747.3820
2023-03-29T00:26:55.297Z,1755.4240
2023-03-29T00:27:06.350Z,1761.2140
2023-03-29T00:27:17.420Z,1758.8929
2023-03-29T00:27:28.465Z,1769.3840
2023-03-29T00:27:39.529Z,1758.8929
2023-03-29T00:27:50.584Z,1761.2140
2023-03-29T00:28:01.636Z,1761.2140
2023-03-29T00:28:12.698Z,1761.2140
2023-03-29T00:28:23.759Z,1750.8199
2023-03-29T00:28:34.820Z,1755.4240
2023-03-29T00:28:45.842Z,1760.0530
2023-03-29T00:28:56.914Z,1758.8929
2023-03-29T00:29:07.973Z,1758.8929
2023-03-29T00:29:19.002Z,1763.5400
2023-03-29T00:29:30.051Z,1751.9680
2023-03-29T00:29:41.140Z,1754.2710
2023-03-29T00:29:52.154Z,1758.8929
2023-03-29T00:30:03.243Z,1762.3760
2023-03-29T00:30:14.279Z,1753.1190
2023-03-29T00:30:25.364Z,1775.2660
2023-03-29T00:30:36.425Z,1751.9680
2023-03-29T00:30:47.470Z,1755.4240
2023-03-29T00:30:58.586Z,1756.5790
2023-03-29T00:31:09.668Z,1754.2710
2023-03-29T00:31:20.757Z,1749.6720
2023-03-29T00:31:31.851Z,1757.7350
2023-03-29T00:31:42.950Z,1765.8730
2023-03-29T00:31:54.129Z,1769.3840
2023-03-29T00:32:05.217Z,1754.2710
2023-03-29T00:32:16.274Z,1756.5790
2023-03-29T00:32:27.385Z,1763.5400
2023-03-29T00:32:38.483Z,1761.2140
2023-03-29T00:32:49.582Z,1761.2140
2023-03-29T00:33:00.691Z,1767.0420
2023-03-29T00:33:11.770Z,1776.4470
2023-03-29T00:33:22.816Z,1763.5400
2023-03-29T00:33:33.905Z,1778.8140
2023-03-29T00:33:44.928Z,1762.3760
2023-03-29T00:33:55.986Z,1763.5400
2023-03-29T00:34:07.028Z,1777.6300
2023-03-29T00:34:18.075Z,1758.8929
2023-03-29T00:34:29.136Z,1764.7061
2023-03-29T00:34:40.176Z,1770.5570
2023-03-29T00:34:51.238Z,1764.7061
2023-03-29T00:35:02.310Z,1772.9080
2023-03-29T00:35:13.359Z,1762.3760
2023-03-29T00:35:24.453Z,1764.7061
2023-03-29T00:35:35.525Z,1770.5570
2023-03-29T00:35:46.637Z,1757.7350
2023-03-29T00:35:57.714Z,1772.9080
2023-03-29T00:36:08.870Z,1765.8730
2023-03-29T00:36:19.922Z,1771.7321
2023-03-29T00:36:30.989Z,1764.7061
2023-03-29T00:36:42.065Z,1782.3760
2023-03-29T00:36:53.180Z,1789.5439
2023-03-29T00:37:04.237Z,1768.2120
2023-03-29T00:37:15.314Z,1758.8929
2023-03-29T00:37:26.379Z,1768.2120
2023-03-29T00:37:37.437Z,1764.7061
2023-03-29T00:37:48.488Z,1772.9080
2023-03-29T00:37:59.575Z,1770.5570
2023-03-29T00:38:10.629Z,1767.0420
2023-03-29T00:38:21.671Z,1780.0000
2023-03-29T00:38:32.726Z,1768.2120
2023-03-29T00:38:43.791Z,1770.5570
2023-03-29T00:38:54.848Z,1757.7350
2023-03-29T00:39:05.912Z,1765.8730
2023-03-29T00:39:16.959Z,1770.5570
2023-03-29T00:39:28.138Z,1771.7321
2023-03-29T00:39:39.189Z,1763.5400
2023-03-29T00:39:50.218Z,1778.8140
2023-03-29T00:40:01.281Z,1770.5570
2023-03-29T00:40:12.342Z,1756.5790
2023-03-29T00:40:23.411Z,1771.7321
2023-03-29T00:40:34.450Z,1768.2120
2023-03-29T00:40:45.528Z,1770.5570
2023-03-29T00:40:56.581Z,1769.3840
2023-03-29T00:41:07.638Z,1772.9080
2023-03-29T00:41:18.705Z,1768.2120
2023-03-29T00:41:29.730Z,1767.0420
2023-03-29T00:41:40.790Z,1768.2120
2023-03-29T00:41:51.872Z,1772.9080
2023-03-29T00:42:02.935Z,1764.7061
2023-03-29T00:42:14.027Z,1774.0861
2023-03-29T00:42:25.077Z,1772.9080
2023-03-29T00:42:36.138Z,1769.3840
2023-03-29T00:42:47.182Z,1770.5570
2023-03-29T00:42:58.253Z,1794.3550
2023-03-29T00:43:09.288Z,1772.9080
2023-03-29T00:43:20.327Z,1789.5439
2023-03-29T00:43:31.394Z,1777.6300
2023-03-29T00:43:42.543Z,1777.6300
2023-03-29T00:43:53.581Z,1772.9080
2023-03-29T00:44:04.641Z,1768.2120
2023-03-29T00:44:15.700Z,1777.6300
2023-03-29T00:44:26.766Z,1770.5570
2023-03-29T00:44:37.852Z,1791.9460
2023-03-29T00:44:48.916Z,1772.9080
2023-03-29T00:44:59.986Z,1770.5570
2023-03-29T00:45:11.037Z,1768.2120
2023-03-29T00:45:22.087Z,1775.2660
2023-03-29T00:45:33.150Z,1770.5570
2023-03-29T00:45:44.207Z,1765.8730
2023-03-29T00:45:55.353Z,1777.6300
2023-03-29T00:46:06.427Z,1772.9080
2023-03-29T00:46:17.453Z,1777.6300
2023-03-29T00:46:28.526Z,1777.6300
2023-03-29T00:46:39.705Z,1775.2660
2023-03-29T00:46:50.770Z,1776.4470
2023-03-29T00:47:01.804Z,1772.9080
2023-03-29T00:47:12.898Z,1778.8140
2023-03-29T00:47:23.922Z,1778.8140
2023-03-29T00:47:35.050Z,1780.0000
2023-03-29T00:47:46.113Z,1770.5570
2023-03-29T00:47:57.505Z,1772.9080
2023-03-29T00:48:08.830Z,1775.2660
2023-03-29T00:48:19.917Z,1781.1870
2023-03-29T00:48:30.977Z,1777.6300
2023-03-29T00:48:42.014Z,1770.5570
2023-03-29T00:48:53.055Z,1775.2660
2023-03-29T00:49:04.094Z,1778.8140
2023-03-29T00:49:15.172Z,1806.4950
2023-03-29T00:49:26.228Z,1775.2660
2023-03-29T00:49:37.288Z,1774.0861
2023-03-29T00:49:48.377Z,1775.2660
2023-03-29T00:49:59.451Z,1772.9080
2023-03-29T00:50:10.549Z,1775.2660
2023-03-29T00:50:21.584Z,1788.3459
2023-03-29T00:50:32.639Z,1782.3760
2023-03-29T00:50:43.699Z,1780.0000
2023-03-29T00:50:54.773Z,1783.5670
2023-03-29T00:51:08.174Z,1778.8140
2023-03-29T00:51:20.501Z,1778.8140
2023-03-29T00:51:31.569Z,1781.1870
2023-03-29T00:51:42.626Z,1772.9080
2023-03-29T00:51:53.698Z,1780.0000
2023-03-29T00:52:04.747Z,1777.6300
2023-03-29T00:52:15.859Z,1775.2660
2023-03-29T00:52:26.914Z,1783.5670
2023-03-29T00:52:37.979Z,1772.9080
2023-03-29T00:52:49.035Z,1780.0000
2023-03-29T00:53:00.105Z,1782.3760
2023-03-29T00:53:11.130Z,1790.7440
2023-03-29T00:53:22.194Z,1787.1490
2023-03-29T00:53:33.234Z,1774.0861
2023-03-29T00:53:44.294Z,1801.6190
2023-03-29T00:53:55.366Z,1785.9530
2023-03-29T00:54:06.417Z,1783.5670
2023-03-29T00:54:17.534Z,1778.8140
2023-03-29T00:54:28.566Z,1780.0000
2023-03-29T00:54:39.617Z,1781.1870
2023-03-29T00:54:50.672Z,1775.2660
2023-03-29T00:55:01.718Z,1802.8361
2023-03-29T00:55:12.787Z,1800.4050
2023-03-29T00:55:23.862Z,1791.9460
2023-03-29T00:55:34.889Z,1787.1490
2023-03-29T00:55:45.939Z,1777.6300
2023-03-29T00:55:57.000Z,1782.3760
2023-03-29T00:56:08.048Z,1787.1490
2023-03-29T00:56:19.082Z,1807.7180
2023-03-29T00:56:30.173Z,1790.7440
2023-03-29T00:56:41.277Z,1796.7700
2023-03-29T00:56:52.382Z,1788.3459
2023-03-29T00:57:03.518Z,1787.1490
2023-03-29T00:57:14.604Z,1788.3459
2023-03-29T00:57:27.659Z,1787.1490
2023-03-29T00:57:39.011Z,1791.9460
2023-03-29T00:57:50.048Z,1801.6190
2023-03-29T00:58:01.078Z,1795.5620
2023-03-29T00:58:12.143Z,1788.3459
2023-03-29T00:58:23.198Z,1787.1490
2023-03-29T00:58:34.248Z,1787.1490
2023-03-29T00:58:45.318Z,1784.7590
2023-03-29T00:58:56.400Z,1795.5620
2023-03-29T00:59:07.470Z,1787.1490
2023-03-29T00:59:18.525Z,1787.1490
2023-03-29T00:59:29.549Z,1780.0000
2023-03-29T00:59:40.598Z,1788.3459
2023-03-29T00:59:51.665Z,1790.7440
2023-03-29T01:00:02.721Z,1790.7440
2023-03-29T01:00:13.799Z,1784.7590
2023-03-29T01:00:24.847Z,1788.3459
2023-03-29T01:00:35.894Z,1780.0000
2023-03-29T01:00:46.968Z,1790.7440
2023-03-29T01:00:58.058Z,1795.5620
2023-03-29T01:01:09.093Z,1782.3760
2023-03-29T01:01:20.241Z,1780.0000
2023-03-29T01:01:31.368Z,1813.8590
2023-03-29T01:01:42.559Z,1788.3459
2023-03-29T01:01:53.748Z,1806.4950
2023-03-29T01:02:04.902Z,1780.0000
2023-03-29T01:02:16.011Z,1793.1500
2023-03-29T01:02:27.070Z,1794.3550
2023-03-29T01:02:38.321Z,1796.7700
2023-03-29T01:02:49.536Z,1778.8140
2023-03-29T01:03:00.688Z,1795.5620
2023-03-29T01:03:11.993Z,1795.5620
2023-03-29T01:03:23.164Z,1796.7700
2023-03-29T01:03:34.344Z,1796.7700
2023-03-29T01:03:45.511Z,1806.4950
2023-03-29T01:03:56.710Z,1812.6270
2023-03-29T01:04:07.828Z,1787.1490
2023-03-29T01:04:18.930Z,1799.1910
2023-03-29T01:04:29.958Z,1791.9460
2023-03-29T01:04:41.020Z,1784.7590
2023-03-29T01:04:52.060Z,1801.6190
2023-03-29T01:05:03.118Z,1813.8590
2023-03-29T01:05:14.219Z,1796.7700
2023-03-29T01:05:25.256Z,1796.7700
2023-03-29T01:05:36.320Z,1793.1500
2023-03-29T01:05:47.360Z,1822.5260
2023-03-29T01:05:58.436Z,1796.7700
2023-03-29T01:06:09.498Z,1802.8361
2023-03-29T01:06:20.570Z,1802.8361
2023-03-29T01:06:31.655Z,1793.1500
2023-03-29T01:06:42.724Z,1799.1910
2023-03-29T01:06:53.834Z,1796.7700
2023-03-29T01:07:05.028Z,1793.1500
2023-03-29T01:07:16.152Z,1796.7700
2023-03-29T01:07:27.182Z,1799.1910
2023-03-29T01:07:38.236Z,1795.5620
2023-03-29T01:07:49.317Z,1799.1910
2023-03-29T01:08:00.349Z,1795.5620
2023-03-29T01:08:11.394Z,1805.2740
2023-03-29T01:08:22.461Z,1806.4950
2023-03-29T01:08:33.511Z,1800.4050
2023-03-29T01:08:44.565Z,1804.0540
2023-03-29T01:08:55.627Z,1816.3270
2023-03-29T01:09:06.641Z,1799.1910
2023-03-29T01:09:17.713Z,1804.0540
2023-03-29T01:09:28.747Z,1802.8361
2023-03-29T01:09:39.806Z,1796.7700
2023-03-29T01:09:50.864Z,1791.9460
2023-03-29T01:10:01.913Z,1801.6190
2023-03-29T01:10:12.987Z,1796.7700
2023-03-29T01:10:24.038Z,1802.8361
2023-03-29T01:10:35.125Z,1806.4950
2023-03-29T01:10:46.171Z,1808.9430
2023-03-29T01:10:57.261Z,1791.9460
2023-03-29T01:11:08.288Z,1799.1910
2023-03-29T01:11:19.322Z,1805.2740
2023-03-29T01:11:30.381Z,1796.7700
2023-03-29T01:11:41.458Z,1797.9800
2023-03-29T01:11:52.496Z,1808.9430
2023-03-29T01:12:03.558Z,1799.1910
2023-03-29T01:12:14.664Z,1805.2740
2023-03-29T01:12:25.720Z,1813.8590
2023-03-29T01:12:36.768Z,1800.4050
2023-03-29T01:12:47.833Z,1825.0170
2023-03-29T01:12:58.886Z,1793.1500
2023-03-29T01:13:09.921Z,1802.8361
2023-03-29T01:13:20.998Z,1799.1910
2023-03-29T01:13:32.052Z,1795.5620
2023-03-29T01:13:43.093Z,1808.9430
2023-03-29T01:13:54.139Z,1796.7700
2023-03-29T01:14:05.171Z,1802.8361
2023-03-29T01:14:16.229Z,1808.9430
2023-03-29T01:14:27.288Z,1801.6190
2023-03-29T01:14:38.348Z,1811.3979
2023-03-29T01:14:49.407Z,1801.6190
2023-03-29T01:15:00.462Z,1832.5330
2023-03-29T01:15:11.526Z,1820.0410
2023-03-29T01:15:22.592Z,1825.0170
2023-03-29T01:15:33.632Z,1805.2740
2023-03-29T01:15:44.701Z,1818.8010
2023-03-29T01:15:55.776Z,1806.4950
2023-03-29T01:16:06.837Z,1800.4050
2023-03-29T01:16:17.921Z,1800.4050
2023-03-29T01:16:29.041Z,1799.1910
2023-03-29T01:16:40.115Z,1805.2740
2023-03-29T01:16:51.217Z,1806.4950
2023-03-29T01:17:02.323Z,1804.0540
2023-03-29T01:17:13.369Z,1808.9430
2023-03-29T01:17:31.531Z,1806.4950
2023-03-29T01:17:49.886Z,1818.8010
2023-03-29T01:18:00.948Z,1789.5439
2023-03-29T01:18:19.519Z,1795.5620
2023-03-29T01:18:30.593Z,1785.9530
2023-03-29T01:18:49.159Z,1780.0000
2023-03-29T01:19:00.225Z,1787.1490
2023-03-29T01:19:11.273Z,1787.1490
2023-03-29T01:19:22.315Z,1789.5439
2023-03-29T01:19:33.373Z,1790.7440
2023-03-29T01:19:44.419Z,1795.5620
2023-03-29T01:19:55.502Z,1791.9460
2023-03-29T01:20:06.577Z,1794.3550
2023-03-29T01:20:17.635Z,1799.1910
2023-03-29T01:20:28.654Z,1790.7440
2023-03-29T01:20:39.702Z,1793.1500
2023-03-29T01:20:50.771Z,1799.1910
2023-03-29T01:21:01.978Z,1787.1490
2023-03-29T01:21:13.087Z,1793.1500
2023-03-29T01:21:24.150Z,1796.7700
2023-03-29T01:21:35.203Z,1799.1910
2023-03-29T01:21:46.251Z,1800.4050
2023-03-29T01:21:57.302Z,1796.7700
2023-03-29T01:22:08.325Z,1802.8361
2023-03-29T01:22:19.375Z,1796.7700
2023-03-29T01:22:30.433Z,1793.1500
2023-03-29T01:22:41.533Z,1811.3979
2023-03-29T01:22:52.590Z,1806.4950
2023-03-29T01:23:03.632Z,1801.6190
2023-03-29T01:23:14.680Z,1810.1689
2023-03-29T01:23:25.728Z,1799.1910
2023-03-29T01:23:36.772Z,1816.3270
2023-03-29T01:23:47.820Z,1808.9430
2023-03-29T01:23:58.871Z,1818.8010
2023-03-29T01:24:09.935Z,1826.2650
2023-03-29T01:24:20.978Z,1820.0410
2023-03-29T01:24:32.063Z,1801.6190
2023-03-29T01:24:43.101Z,1823.7700
2023-03-29T01:24:54.165Z,1817.5630
2023-03-29T01:25:05.221Z,1808.9430
2023-03-29T01:25:16.278Z,1810.1689
2023-03-29T01:25:27.332Z,1806.4950
2023-03-29T01:25:38.368Z,1805.2740
2023-03-29T01:25:49.413Z,1805.2740
2023-03-29T01:26:00.481Z,1808.9430
2023-03-29T01:26:11.524Z,1806.4950
2023-03-29T01:26:22.601Z,1811.3979
2023-03-29T01:26:33.692Z,1801.6190
2023-03-29T01:26:44.755Z,1807.7180
2023-03-29T01:26:55.837Z,1802.8361
2023-03-29T01:27:06.900Z,1791.9460
2023-03-29T01:27:17.999Z,1807.7180
2023-03-29T01:27:29.042Z,1811.3979
2023-03-29T01:27:40.114Z,1811.3979
2023-03-29T01:27:51.201Z,1805.2740
2023-03-29T01:28:02.250Z,1802.8361
2023-03-29T01:28:13.305Z,1832.5330
2023-03-29T01:28:24.358Z,1812.6270
2023-03-29T01:28:35.401Z,1810.1689
2023-03-29T01:28:46.458Z,1805.2740
2023-03-29T01:28:57.517Z,1811.3979
2023-03-29T01:29:08.572Z,1807.7180
2023-03-29T01:29:19.625Z,1818.8010
2023-03-29T01:29:30.685Z,1811.3979
2023-03-29T01:29:41.726Z,1820.0410
2023-03-29T01:29:52.774Z,1820.0410
2023-03-29T01:30:03.840Z,1804.0540
2023-03-29T01:30:14.898Z,1818.8010
2023-03-29T01:30:25.937Z,1820.0410
2023-03-29T01:30:37.093Z,1816.3270
2023-03-29T01:30:48.141Z,1818.8010
2023-03-29T01:30:59.246Z,1813.8590
2023-03-29T01:31:10.443Z,1816.3270
2023-03-29T01:31:21.537Z,1817.5630
2023-03-29T01:31:32.674Z,1815.0920
2023-03-29T01:31:43.859Z,1838.8430
2023-03-29T01:31:55.000Z,1816.3270
2023-03-29T01:32:06.073Z,1808.9430
2023-03-29T01:32:17.107Z,1818.8010
2023-03-29T01:32:28.252Z,1811.3979
2023-03-29T01:32:39.309Z,1830.0210
2023-03-29T01:32:50.397Z,1812.6270
2023-03-29T01:33:01.668Z,1822.5260
2023-03-29T01:33:12.740Z,1816.3270
2023-03-29T01:33:23.792Z,1820.0410
2023-03-29T01:33:34.862Z,1808.9430
2023-03-29T01:33:45.908Z,1835.0520
2023-03-29T01:33:56.957Z,1816.3270
2023-03-29T01:34:08.014Z,1826.2650
2023-03-29T01:34:19.044Z,1816.3270
2023-03-29T01:34:30.104Z,1825.0170
2023-03-29T01:34:41.163Z,1808.9430
2023-03-29T01:34:52.209Z,1820.0410
2023-03-29T01:35:03.243Z,1820.0410
2023-03-29T01:35:14.325Z,1816.3270
2023-03-29T01:35:25.386Z,1823.7700
2023-03-29T01:35:36.430Z,1812.6270
2023-03-29T01:35:47.502Z,1822.5260
2023-03-29T01:35:58.638Z,1811.3979
2023-03-29T01:36:09.784Z,1823.7700
2023-03-29T01:36:20.892Z,1821.2820
2023-03-29T01:36:31.955Z,1826.2650
2023-03-29T01:36:43.062Z,1821.2820
2023-03-29T01:36:54.093Z,1812.6270
2023-03-29T01:37:05.164Z,1821.2820
2023-03-29T01:37:16.213Z,1823.7700
2023-03-29T01:37:27.302Z,1833.7910
2023-03-29T01:37:38.366Z,1821.2820
2023-03-29T01:37:49.406Z,1821.2820
2023-03-29T01:38:00.458Z,1847.7510
2023-03-29T01:38:11.507Z,1823.7700
2023-03-29T01:38:22.575Z,1822.5260
2023-03-29T01:38:33.610Z,1821.2820
2023-03-29T01:38:44.674Z,1836.3140
2023-03-29T01:38:55.720Z,1825.0170
2023-03-29T01:39:06.782Z,1850.3120
2023-03-29T01:39:17.852Z,1837.5770
2023-03-29T01:39:28.919Z,1826.2650
2023-03-29T01:39:39.974Z,1826.2650
2023-03-29T01:39:51.045Z,1828.7670
2023-03-29T01:40:02.100Z,1821.2820
2023-03-29T01:40:13.168Z,1826.2650
2023-03-29T01:40:24.242Z,1827.5150
2023-03-29T01:40:35.282Z,1831.2760
2023-03-29T01:40:46.344Z,1827.5150
2023-03-29T01:40:57.370Z,1831.2760
2023-03-29T01:41:08.411Z,1836.3140
2023-03-29T01:41:19.464Z,1837.5770
2023-03-29T01:41:30.533Z,1833.7910
2023-03-29T01:41:41.571Z,1823.7700
2023-03-29T01:41:52.644Z,1836.3140
2023-03-29T01:42:03.689Z,1841.3790
2023-03-29T01:42:14.725Z,1832.5330
2023-03-29T01:42:25.804Z,1833.7910
2023-03-29T01:42:36.903Z,1833.7910
2023-03-29T01:42:47.950Z,1843.9230
2023-03-29T01:42:59.016Z,1835.0520
2023-03-29T01:43:10.064Z,1836.3140
2023-03-29T01:43:21.092Z,1843.9230
2023-03-29T01:43:32.155Z,1832.5330
2023-03-29T01:43:43.184Z,1831.2760
2023-03-29T01:43:54.248Z,1835.0520
2023-03-29T01:44:05.314Z,1832.5330
2023-03-29T01:44:16.363Z,1836.3140
2023-03-29T01:44:27.392Z,1852.8800
2023-03-29T01:44:38.445Z,1838.8430
2023-03-29T01:44:49.500Z,1842.6500
2023-03-29T01:45:00.566Z,1836.3140
2023-03-29T01:45:11.637Z,1836.3140
2023-03-29T01:45:22.703Z,1845.1970
2023-03-29T01:45:33.745Z,1836.3140
2023-03-29T01:45:44.837Z,1833.7910
2023-03-29T01:45:55.912Z,1840.1100
2023-03-29T01:46:07.040Z,1841.3790
2023-03-29T01:46:18.114Z,1842.6500
2023-03-29T01:46:29.267Z,1838.8430
2023-03-29T01:46:40.323Z,1846.4730
2023-03-29T01:46:51.346Z,1846.4730
2023-03-29T01:47:02.407Z,1842.6500
2023-03-29T01:47:13.463Z,1840.1100
2023-03-29T01:47:24.560Z,1849.0300
2023-03-29T01:47:35.683Z,1845.1970
2023-03-29T01:47:46.756Z,1846.4730
2023-03-29T01:47:57.845Z,1846.4730
2023-03-29T01:48:08.892Z,1838.8430
2023-03-29T01:48:19.967Z,1842.6500
2023-03-29T01:48:31.022Z,1851.5950
2023-03-29T01:48:42.094Z,1837.5770
2023-03-29T01:48:53.141Z,1836.3140
2023-03-29T01:49:04.212Z,1847.7510
2023-03-29T01:49:15.245Z,1859.3311
2023-03-29T01:49:26.338Z,1841.3790
2023-03-29T01:49:37.407Z,1856.7450
2023-03-29T01:49:48.459Z,1837.5770
2023-03-29T01:49:59.555Z,1847.7510
2023-03-29T01:50:10.592Z,1856.7450
2023-03-29T01:50:21.630Z,1864.5250
2023-03-29T01:50:32.721Z,1850.3120
2023-03-29T01:50:43.752Z,1858.0380
2023-03-29T01:50:54.804Z,1841.3790
2023-03-29T01:51:05.851Z,1841.3790
2023-03-29T01:51:16.897Z,1846.4730
2023-03-29T01:51:27.950Z,1849.0300
2023-03-29T01:51:39.014Z,1856.7450
2023-03-29T01:51:50.069Z,1843.9230
2023-03-29T01:52:01.086Z,1846.4730
2023-03-29T01:52:12.141Z,1849.0300
2023-03-29T01:52:23.181Z,1843.9230
2023-03-29T01:52:34.242Z,1843.9230
2023-03-29T01:52:45.317Z,1835.0520
2023-03-29T01:52:56.396Z,1838.8430
2023-03-29T01:53:07.430Z,1846.4730
2023-03-29T01:53:18.491Z,1846.4730
2023-03-29T01:53:29.561Z,1843.9230
2023-03-29T01:53:40.629Z,1855.4550
2023-03-29T01:53:51.684Z,1840.1100
2023-03-29T01:54:02.753Z,1828.7670
2023-03-29T01:54:13.809Z,1841.3790
2023-03-29T01:54:24.853Z,1854.1670
2023-03-29T01:54:35.930Z,1840.1100
2023-03-29T01:54:46.958Z,1845.1970
2023-03-29T01:54:58.009Z,1841.3790
2023-03-29T01:55:09.068Z,1854.1670
2023-03-29T01:55:20.090Z,1846.4730
2023-03-29T01:55:31.152Z,1833.7910
2023-03-29T01:55:42.204Z,1856.7450
2023-03-29T01:55:53.246Z,1854.1670
2023-03-29T01:56:04.311Z,1841.3790
2023-03-29T01:56:15.357Z,1836.3140
2023-03-29T01:56:26.412Z,1846.4730
2023-03-29T01:56:37.497Z,1855.4550
2023-03-29T01:56:48.563Z,1858.0380
2023-03-29T01:56:59.630Z,1843.9230
2023-03-29T01:57:10.807Z,1856.7450
2023-03-29T01:57:21.942Z,1842.6500
2023-03-29T01:57:32.958Z,1850.3120
2023-03-29T01:57:44.049Z,1838.8430
2023-03-29T01:57:55.092Z,1838.8430
2023-03-29T01:58:06.168Z,1841.3790
2023-03-29T01:58:17.231Z,1854.1670
2023-03-29T01:58:28.259Z,1830.0210
2023-03-29T01:58:39.311Z,1832.5330
2023-03-29T01:58:50.379Z,1847.7510
2023-03-29T01:59:01.433Z,1836.3140
2023-03-29T01:59:12.511Z,1832.5330
2023-03-29T01:59:23.542Z,1831.2760
2023-03-29T01:59:34.606Z,1832.5330
2023-03-29T01:59:45.661Z,1836.3140
2023-03-29T01:59:56.731Z,1842.6500
2023-03-29T02:00:07.777Z,1836.3140
2023-03-29T02:00:18.832Z,1833.7910
2023-03-29T02:00:29.892Z,1838.8430
2023-03-29T02:00:40.943Z,1849.0300
2023-03-29T02:00:52.009Z,1831.2760
2023-03-29T02:01:03.438Z,1854.1670
2023-03-29T02:01:14.713Z,1830.0210
2023-03-29T02:01:25.990Z,1826.2650
2023-03-29T02:01:37.210Z,1836.3140
2023-03-29T02:01:48.351Z,1851.5950
2023-03-29T02:01:59.524Z,1849.0300
2023-03-29T02:02:10.616Z,1831.2760
2023-03-29T02:02:21.688Z,1826.2650
2023-03-29T02:02:32.803Z,1828.7670
2023-03-29T02:02:43.980Z,1821.2820
2023-03-29T02:02:55.206Z,1846.4730
2023-03-29T02:03:06.472Z,1828.7670
2023-03-29T02:03:17.769Z,1831.2760
2023-03-29T02:03:29.145Z,1823.7700
2023-03-29T02:03:40.304Z,1845.1970
2023-03-29T02:03:51.342Z,1821.2820
2023-03-29T02:04:02.387Z,1826.2650
2023-03-29T02:04:13.525Z,1822.5260
2023-03-29T02:04:24.575Z,1826.2650
2023-03-29T02:04:35.639Z,1827.5150
2023-03-29T02:04:46.703Z,1820.0410
2023-03-29T02:04:57.751Z,1823.7700
2023-03-29T02:05:08.804Z,1826.2650
2023-03-29T02:05:19.857Z,1811.3979
2023-03-29T02:05:30.911Z,1813.8590
2023-03-29T02:05:41.997Z,1818.8010
2023-03-29T02:05:53.048Z,1815.0920
2023-03-29T02:06:04.096Z,1838.8430
2023-03-29T02:06:15.136Z,1818.8010
2023-03-29T02:06:26.198Z,1823.7700
2023-03-29T02:06:37.251Z,1812.6270
2023-03-29T02:06:48.307Z,1845.1970
2023-03-29T02:06:59.390Z,1818.8010
2023-03-29T02:07:10.442Z,1816.3270
2023-03-29T02:07:21.509Z,1823.7700
2023-03-29T02:07:32.549Z,1840.1100